createdAt,value
2022-12-03T00:02:14.618Z,98019.41
2022-12-03T00:04:41.300Z,98016.72
2022-12-03T00:07:07.955Z,98026.41
2022-12-03T00:09:34.810Z,98032.75
2022-12-03T00:12:02.338Z,98039.78
2022-12-03T00:14:29.073Z,98047.56
2022-12-03T00:16:55.719Z,98044.66
2022-12-03T00:19:22.340Z,98047.34
2022-12-03T00:21:49.009Z,98048.19
2022-12-03T00:24:15.819Z,98048.34
2022-12-03T00:26:42.473Z,98039.31
2022-12-03T00:29:09.182Z,98041.16
2022-12-03T00:31:36.009Z,98036.69
2022-12-03T00:34:02.807Z,98052.75
2022-12-03T00:36:29.529Z,98056.22
2022-12-03T00:38:56.096Z,98060.94
2022-12-03T00:41:23.089Z,98067.91
2022-12-03T00:43:49.991Z,98068.09
2022-12-03T00:46:21.135Z,98064.38
2022-12-03T00:48:48.302Z,98062.09
2022-12-03T00:51:15.153Z,98068.03
2022-12-03T00:53:42.033Z,98069.69
2022-12-03T00:56:08.970Z,98057.97
2022-12-03T00:58:35.596Z,98065.97
2022-12-03T01:01:02.674Z,98074.00
2022-12-03T01:03:29.588Z,98069.31
2022-12-03T01:05:56.838Z,98070.72
2022-12-03T01:08:23.550Z,98081.59
2022-12-03T01:10:50.173Z,98085.91
2022-12-03T01:13:16.877Z,98072.38
2022-12-03T01:15:43.751Z,98081.19
2022-12-03T01:18:10.503Z,98079.75
2022-12-03T01:20:38.668Z,98081.75
2022-12-03T01:23:05.628Z,98086.31
2022-12-03T01:25:32.370Z,98087.53
2022-12-03T01:27:59.073Z,98085.31
2022-12-03T01:30:25.867Z,98080.34
2022-12-03T01:32:52.612Z,98085.09
2022-12-03T01:35:19.468Z,98078.69
2022-12-03T01:37:46.084Z,98080.94
2022-12-03T01:40:17.272Z,98076.66
2022-12-03T01:42:44.266Z,98075.00
2022-12-03T01:45:21.171Z,98079.50
2022-12-03T01:47:47.855Z,98070.91
2022-12-03T01:50:33.287Z,98073.16
2022-12-03T01:53:02.472Z,98077.47
2022-12-03T01:55:29.754Z,98069.44
2022-12-03T01:57:59.876Z,98078.03
2022-12-03T02:00:28.317Z,98072.13
2022-12-03T02:02:59.609Z,98074.78
2022-12-03T02:05:31.691Z,98081.75
2022-12-03T02:07:59.437Z,98078.50
2022-12-03T02:10:38.094Z,98068.81
2022-12-03T02:13:09.480Z,98066.16
2022-12-03T02:15:38.419Z,98071.34
2022-12-03T02:18:05.572Z,98070.72
2022-12-03T02:20:41.644Z,98072.38
2022-12-03T02:23:30.322Z,98074.00
2022-12-03T02:25:57.105Z,98080.41
2022-12-03T02:28:23.798Z,98080.00
2022-12-03T02:30:50.636Z,98082.88
2022-12-03T02:33:17.340Z,98083.69
2022-12-03T02:35:44.723Z,98085.53
2022-12-03T02:38:14.268Z,98084.34
2022-12-03T02:40:42.314Z,98078.59
2022-12-03T02:43:10.594Z,98074.06
2022-12-03T02:45:41.590Z,98082.53
2022-12-03T02:48:14.152Z,98087.88
2022-12-03T02:50:44.849Z,98087.25
2022-12-03T02:53:19.190Z,98080.09
2022-12-03T02:55:46.448Z,98079.66
2022-12-03T02:58:14.547Z,98090.16
2022-12-03T03:00:43.387Z,98088.31
2022-12-03T03:03:10.567Z,98088.06
2022-12-03T03:05:39.748Z,98078.63
2022-12-03T03:08:08.773Z,98087.03
2022-12-03T03:10:38.286Z,98091.16
2022-12-03T03:13:09.736Z,98087.44
2022-12-03T03:15:38.484Z,98097.94
2022-12-03T03:18:06.291Z,98089.09
2022-12-03T03:20:33.105Z,98089.09
2022-12-03T03:23:13.271Z,98091.53
2022-12-03T03:25:42.792Z,98092.34
2022-12-03T03:28:10.177Z,98091.53
2022-12-03T03:30:39.110Z,98084.56
2022-12-03T03:33:06.510Z,98087.63
2022-12-03T03:35:33.310Z,98097.28
2022-12-03T03:38:00.567Z,98098.91
2022-12-03T03:40:27.843Z,98096.47
2022-12-03T03:42:56.129Z,98107.75
2022-12-03T03:45:28.865Z,98099.34
2022-12-03T03:47:57.644Z,98097.50
2022-12-03T03:50:24.659Z,98106.13
2022-12-03T03:52:51.692Z,98112.28
2022-12-03T03:55:20.426Z,98107.75
2022-12-03T03:57:47.848Z,98109.00
2022-12-03T04:00:14.751Z,98102.78
2022-12-03T04:02:42.230Z,98092.31
2022-12-03T04:05:17.161Z,98107.72
2022-12-03T04:07:44.055Z,98104.22
2022-12-03T04:10:30.027Z,98108.34
2022-12-03T04:12:56.955Z,98108.72
2022-12-03T04:15:25.044Z,98109.56
2022-12-03T04:18:10.902Z,98108.50
2022-12-03T04:20:38.152Z,98114.91
2022-12-03T04:23:05.592Z,98110.59
2022-12-03T04:25:50.980Z,98115.31
2022-12-03T04:28:36.458Z,98114.47
2022-12-03T04:31:26.098Z,98112.00
2022-12-03T04:34:12.332Z,98111.81
2022-12-03T04:36:39.391Z,98121.47
2022-12-03T04:39:06.059Z,98116.91
2022-12-03T04:41:32.846Z,98114.25
2022-12-03T04:44:17.933Z,98116.28
2022-12-03T04:46:44.567Z,98122.84
2022-12-03T04:49:11.426Z,98126.53
2022-12-03T04:51:38.155Z,98125.06
2022-12-03T04:54:04.936Z,98126.34
2022-12-03T04:56:31.572Z,98130.44
2022-12-03T04:58:58.430Z,98139.25
2022-12-03T05:01:25.173Z,98127.16
2022-12-03T05:03:51.900Z,98135.34
2022-12-03T05:06:18.647Z,98127.31
2022-12-03T05:08:45.294Z,98126.75
2022-12-03T05:11:11.894Z,98132.91
2022-12-03T05:13:38.724Z,98134.97
2022-12-03T05:16:05.585Z,98133.91
2022-12-03T05:18:32.361Z,98139.66
2022-12-03T05:20:59.399Z,98143.19
2022-12-03T05:23:26.195Z,98144.00
2022-12-03T05:25:52.856Z,98138.66
2022-12-03T05:28:22.297Z,98146.44
2022-12-03T05:30:49.118Z,98145.63
2022-12-03T05:33:16.143Z,98144.38
2022-12-03T05:35:43.228Z,98146.44
2022-12-03T05:38:09.870Z,98148.91
2022-12-03T05:40:36.583Z,98151.59
2022-12-03T05:43:04.052Z,98153.44
2022-12-03T05:45:33.567Z,98147.25
2022-12-03T05:48:01.371Z,98143.78
2022-12-03T05:50:31.144Z,98143.56
2022-12-03T05:52:58.281Z,98150.56
2022-12-03T05:55:25.400Z,98136.97
2022-12-03T05:57:52.565Z,98143.56
2022-12-03T06:00:24.886Z,98155.47
2022-12-03T06:02:52.220Z,98156.06
2022-12-03T06:05:20.163Z,98161.22
2022-12-03T06:07:47.719Z,98151.94
2022-12-03T06:10:16.971Z,98159.94
2022-12-03T06:12:44.518Z,98157.72
2022-12-03T06:15:12.032Z,98162.63
2022-12-03T06:17:38.638Z,98163.66
2022-12-03T06:20:05.995Z,98166.13
2022-12-03T06:22:32.841Z,98160.34
2022-12-03T06:25:04.863Z,98168.16
2022-12-03T06:27:33.871Z,98172.25
2022-12-03T06:30:00.503Z,98157.06
2022-12-03T06:32:27.119Z,98153.75
2022-12-03T06:34:53.988Z,98171.00
2022-12-03T06:37:20.828Z,98164.03
2022-12-03T06:39:47.550Z,98171.00
2022-12-03T06:42:14.839Z,98166.31
2022-12-03T06:44:41.401Z,98175.78
2022-12-03T06:47:08.055Z,98173.91
2022-12-03T06:49:35.163Z,98169.38
2022-12-03T06:52:01.883Z,98168.75
2022-12-03T06:54:28.556Z,98171.81
2022-12-03T06:56:55.459Z,98177.19
2022-12-03T06:59:22.145Z,98173.88
2022-12-03T07:01:48.856Z,98162.94
2022-12-03T07:04:15.828Z,98175.66
2022-12-03T07:06:42.442Z,98177.09
2022-12-03T07:09:09.308Z,98175.25
2022-12-03T07:11:42.099Z,98179.56
2022-12-03T07:14:11.271Z,98178.31
2022-12-03T07:16:39.072Z,98174.00
2022-12-03T07:19:06.937Z,98182.22
2022-12-03T07:21:33.698Z,98183.69
2022-12-03T07:24:00.493Z,98179.56
2022-12-03T07:26:27.414Z,98181.81
2022-12-03T07:28:54.047Z,98178.31
2022-12-03T07:31:20.798Z,98182.19
2022-12-03T07:33:47.609Z,98178.28
2022-12-03T07:36:14.285Z,98183.63
2022-12-03T07:38:40.913Z,98188.34
2022-12-03T07:41:08.110Z,98178.47
2022-12-03T07:43:34.755Z,98186.06
2022-12-03T07:46:01.563Z,98191.63
2022-12-03T07:48:28.122Z,98187.22
2022-12-03T07:50:54.770Z,98188.03
2022-12-03T07:53:21.693Z,98201.16
2022-12-03T07:55:48.456Z,98192.69
2022-12-03T07:58:15.063Z,98194.75
2022-12-03T08:00:42.018Z,98185.22
2022-12-03T08:03:08.874Z,98186.63
2022-12-03T08:05:35.824Z,98191.78
2022-12-03T08:08:02.528Z,98191.13
2022-12-03T08:10:29.308Z,98189.63
2022-12-03T08:12:59.249Z,98185.72
2022-12-03T08:15:32.229Z,98190.84
2022-12-03T08:18:12.255Z,98193.91
2022-12-03T08:20:40.972Z,98184.81
2022-12-03T08:23:14.151Z,98188.25
2022-12-03T08:25:41.895Z,98194.59
2022-12-03T08:28:22.072Z,98191.88
2022-12-03T08:31:02.625Z,98185.47
2022-12-03T08:33:36.069Z,98195.75
2022-12-03T08:36:08.546Z,98193.06
2022-12-03T08:38:35.224Z,98185.59
2022-12-03T08:41:40.390Z,98186.22
2022-12-03T08:44:29.110Z,98192.19
2022-12-03T08:47:20.083Z,98190.91
2022-12-03T08:49:58.182Z,98189.84
2022-12-03T08:52:31.829Z,98191.28
2022-12-03T08:55:00.228Z,98185.25
2022-12-03T08:57:30.050Z,98188.91
2022-12-03T09:00:17.102Z,98189.66
2022-12-03T09:02:49.379Z,98180.94
2022-12-03T09:05:20.936Z,98190.53
2022-12-03T09:07:48.004Z,98177.72
2022-12-03T09:10:15.491Z,98181.34
2022-12-03T09:12:42.214Z,98173.69
2022-12-03T09:15:09.572Z,98175.47
2022-12-03T09:17:37.013Z,98173.41
2022-12-03T09:20:05.062Z,98178.66
2022-12-03T09:22:32.009Z,98173.44
2022-12-03T09:24:58.810Z,98176.88
2022-12-03T09:27:25.551Z,98171.63
2022-12-03T09:29:52.430Z,98176.44
2022-12-03T09:32:19.215Z,98171.56
2022-12-03T09:34:46.173Z,98169.59
2022-12-03T09:37:13.022Z,98175.69
2022-12-03T09:39:39.675Z,98180.84
2022-12-03T09:42:06.792Z,98168.72
2022-12-03T09:44:35.097Z,98169.88
2022-12-03T09:47:03.249Z,98168.59
2022-12-03T09:49:32.301Z,98171.88
2022-12-03T09:52:01.483Z,98164.06
2022-12-03T09:54:30.279Z,98169.78
2022-12-03T09:57:02.658Z,98169.69
2022-12-03T09:59:34.392Z,98167.34
2022-12-03T10:02:02.744Z,98167.97
2022-12-03T10:04:30.628Z,98160.72
2022-12-03T10:06:59.024Z,98156.75
2022-12-03T10:09:28.904Z,98147.53
2022-12-03T10:12:00.122Z,98151.75
2022-12-03T10:14:27.981Z,98151.16
2022-12-03T10:16:54.973Z,98138.31
2022-12-03T10:19:29.292Z,98145.56
2022-12-03T10:21:55.947Z,98145.19
2022-12-03T10:24:22.631Z,98141.13
2022-12-03T10:26:51.090Z,98150.69
2022-12-03T10:29:20.824Z,98144.97
2022-12-03T10:31:59.340Z,98146.81
2022-12-03T10:34:35.019Z,98136.50
2022-12-03T10:37:22.134Z,98133.94
2022-12-03T10:40:02.111Z,98129.34
2022-12-03T10:42:32.018Z,98130.03
2022-12-03T10:45:23.029Z,98122.53
2022-12-03T10:48:06.579Z,98126.19
2022-12-03T10:50:34.720Z,98119.31
2022-12-03T10:53:01.619Z,98121.41
2022-12-03T10:55:34.587Z,98116.84
2022-12-03T10:58:01.285Z,98120.59
2022-12-03T11:00:27.882Z,98116.03
2022-12-03T11:02:56.980Z,98116.84
2022-12-03T11:05:28.411Z,98111.47
2022-12-03T11:07:56.613Z,98116.16
2022-12-03T11:10:24.108Z,98125.31
2022-12-03T11:13:39.173Z,98122.53
2022-12-03T11:16:08.176Z,98122.06
2022-12-03T11:18:37.770Z,98113.09
2022-12-03T11:21:14.921Z,98117.31
2022-12-03T11:23:44.959Z,98118.00
2022-12-03T11:26:39.178Z,98118.13
2022-12-03T11:29:14.507Z,98112.09
2022-12-03T11:31:46.714Z,98116.28
2022-12-03T11:34:16.779Z,98119.69
2022-12-03T11:37:11.389Z,98113.41
2022-12-03T11:40:05.486Z,98106.88
2022-12-03T11:42:40.623Z,98108.50
2022-12-03T11:45:08.573Z,98109.06
2022-12-03T11:48:03.433Z,98108.03
2022-12-03T11:50:38.983Z,98109.31
2022-12-03T11:53:13.350Z,98103.00
2022-12-03T11:55:48.514Z,98094.81
2022-12-03T11:58:27.950Z,98100.19
2022-12-03T12:00:57.440Z,98099.38
2022-12-03T12:03:33.407Z,98097.03
2022-12-03T12:06:00.478Z,98099.72
2022-12-03T12:08:27.058Z,98098.09
2022-12-03T12:10:53.885Z,98097.25
2022-12-03T12:13:32.678Z,98095.97
2022-12-03T12:16:01.162Z,98090.59
2022-12-03T12:18:55.095Z,98101.34
2022-12-03T12:21:43.828Z,98096.78
2022-12-03T12:24:35.877Z,98104.84
2022-12-03T12:27:14.146Z,98104.66
2022-12-03T12:29:42.892Z,98099.47
2022-12-03T12:32:09.880Z,98099.72
2022-12-03T12:34:40.562Z,98100.78
2022-12-03T12:37:16.772Z,98098.66
2022-12-03T12:39:43.587Z,98099.47
2022-12-03T12:42:19.972Z,98104.19
2022-12-03T12:44:46.769Z,98098.56
2022-12-03T12:47:13.540Z,98088.03
2022-12-03T12:49:40.257Z,98100.88
2022-12-03T12:52:13.718Z,98097.47
2022-12-03T12:54:40.840Z,98098.88
2022-12-03T12:57:22.179Z,98098.88
2022-12-03T12:59:49.378Z,98100.28
2022-12-03T13:02:41.905Z,98096.06
2022-12-03T13:05:11.677Z,98096.63
2022-12-03T13:07:39.361Z,98093.44
2022-12-03T13:10:21.735Z,98095.66
2022-12-03T13:12:48.378Z,98097.28
2022-12-03T13:15:47.778Z,98100.59
2022-12-03T13:18:21.886Z,98099.19
2022-12-03T13:20:48.748Z,98098.63
2022-12-03T13:23:27.233Z,98105.72
2022-12-03T13:26:02.275Z,98097.28
2022-12-03T13:28:36.121Z,98099.78
2022-12-03T13:31:26.190Z,98099.31
2022-12-03T13:33:54.169Z,98112.19
2022-12-03T13:36:24.230Z,98110.44
2022-12-03T13:38:51.232Z,98103.09
2022-12-03T13:41:39.679Z,98102.75
2022-12-03T13:44:16.256Z,98115.59
2022-12-03T13:46:43.227Z,98105.00
2022-12-03T13:49:21.102Z,98113.88
2022-12-03T13:51:48.410Z,98112.25
2022-12-03T13:54:24.123Z,98111.75
2022-12-03T13:56:50.981Z,98118.78
2022-12-03T13:59:20.340Z,98118.19
2022-12-03T14:01:49.892Z,98114.69
2022-12-03T14:04:16.746Z,98124.38
2022-12-03T14:06:43.397Z,98121.94
2022-12-03T14:09:10.134Z,98119.72
2022-12-03T14:11:55.241Z,98114.00
2022-12-03T14:14:21.952Z,98115.16
2022-12-03T14:16:48.873Z,98118.91
2022-12-03T14:19:15.540Z,98119.59
2022-12-03T14:21:42.492Z,98121.38
2022-12-03T14:24:09.265Z,98124.97
2022-12-03T14:26:35.910Z,98123.00
2022-12-03T14:29:08.452Z,98124.53
2022-12-03T14:31:35.641Z,98129.53
2022-12-03T14:34:02.389Z,98122.03
2022-12-03T14:36:29.239Z,98129.63
2022-12-03T14:38:56.279Z,98126.09
2022-12-03T14:41:41.561Z,98130.75
2022-12-03T14:44:08.328Z,98133.16
2022-12-03T14:46:34.913Z,98130.81
2022-12-03T14:49:01.628Z,98134.84
2022-12-03T14:51:28.491Z,98139.50
2022-12-03T14:53:55.108Z,98127.66
2022-12-03T14:56:21.944Z,98137.47
2022-12-03T14:58:51.620Z,98147.47
2022-12-03T15:01:18.426Z,98147.78
2022-12-03T15:03:45.221Z,98150.31
2022-12-03T15:06:11.970Z,98155.16
2022-12-03T15:08:38.623Z,98149.28
2022-12-03T15:11:05.486Z,98153.06
2022-12-03T15:13:32.638Z,98146.97
2022-12-03T15:15:59.571Z,98141.09
2022-12-03T15:18:26.428Z,98149.34
2022-12-03T15:20:53.284Z,98155.34
2022-12-03T15:23:19.982Z,98149.41
2022-12-03T15:25:47.406Z,98160.00
2022-12-03T15:28:14.208Z,98150.97
2022-12-03T15:30:40.869Z,98157.00
2022-12-03T15:33:12.523Z,98154.59
2022-12-03T15:35:39.295Z,98156.06
2022-12-03T15:38:05.902Z,98147.88
2022-12-03T15:40:33.020Z,98146.75
2022-12-03T15:42:59.904Z,98148.44
2022-12-03T15:45:26.674Z,98161.47
2022-12-03T15:47:53.492Z,98162.31
2022-12-03T15:50:20.194Z,98151.28
2022-12-03T15:52:47.484Z,98164.44
2022-12-03T15:55:14.267Z,98161.44
2022-12-03T15:57:41.106Z,98169.47
2022-12-03T16:00:09.481Z,98174.44
2022-12-03T16:02:40.811Z,98175.66
2022-12-03T16:05:10.324Z,98176.31
2022-12-03T16:07:37.630Z,98186.22
2022-12-03T16:10:06.067Z,98180.09
2022-12-03T16:12:32.885Z,98185.00
2022-12-03T16:14:59.618Z,98187.88
2022-12-03T16:17:26.312Z,98186.47
2022-12-03T16:19:53.484Z,98180.50
2022-12-03T16:22:20.402Z,98175.97
2022-12-03T16:24:47.881Z,98176.19
2022-12-03T16:27:14.659Z,98181.31
2022-12-03T16:29:41.285Z,98181.13
2022-12-03T16:32:08.017Z,98187.06
2022-12-03T16:34:34.650Z,98180.03
2022-12-03T16:37:01.359Z,98186.59
2022-12-03T16:39:28.235Z,98170.53
2022-12-03T16:41:55.034Z,98188.63
2022-12-03T16:44:32.747Z,98176.44
2022-12-03T16:47:00.617Z,98177.06
2022-12-03T16:49:27.880Z,98179.09
2022-12-03T16:51:54.629Z,98182.97
2022-12-03T16:54:21.586Z,98171.22
2022-12-03T16:56:48.762Z,98176.94
2022-12-03T16:59:15.863Z,98181.69
2022-12-03T17:01:42.972Z,98186.38
2022-12-03T17:04:09.604Z,98175.84
2022-12-03T17:06:36.563Z,98184.06
2022-12-03T17:09:03.493Z,98189.59
2022-12-03T17:11:30.208Z,98189.16
2022-12-03T17:13:56.935Z,98189.53
2022-12-03T17:16:23.956Z,98186.03
2022-12-03T17:18:50.620Z,98186.63
2022-12-03T17:21:17.643Z,98188.50
2022-12-03T17:23:46.266Z,98199.22
2022-12-03T17:26:12.851Z,98186.63
2022-12-03T17:28:39.754Z,98188.28
2022-12-03T17:31:06.673Z,98193.41
2022-12-03T17:33:33.337Z,98201.03
2022-12-03T17:36:00.008Z,98203.84
2022-12-03T17:38:26.782Z,98196.03
2022-12-03T17:40:53.591Z,98203.41
2022-12-03T17:43:20.829Z,98201.34
2022-12-03T17:45:47.740Z,98202.56
2022-12-03T17:48:14.463Z,98208.28
2022-12-03T17:50:45.423Z,98209.91
2022-12-03T17:53:12.143Z,98210.31
2022-12-03T17:55:44.589Z,98209.88
2022-12-03T17:58:12.167Z,98213.13
2022-12-03T18:00:39.200Z,98204.66
2022-12-03T18:03:05.791Z,98203.16
2022-12-03T18:05:32.731Z,98196.56
2022-12-03T18:07:59.320Z,98197.97
2022-12-03T18:10:25.959Z,98204.75
2022-12-03T18:12:54.851Z,98197.53
2022-12-03T18:15:25.239Z,98201.63
2022-12-03T18:17:52.252Z,98208.41
2022-12-03T18:20:19.307Z,98206.91
2022-12-03T18:22:46.207Z,98205.88
2022-12-03T18:25:13.482Z,98205.88
2022-12-03T18:27:40.599Z,98212.91
2022-12-03T18:30:07.781Z,98197.00
2022-12-03T18:32:34.473Z,98210.41
2022-12-03T18:35:01.165Z,98212.06
2022-12-03T18:37:29.296Z,98206.91
2022-12-03T18:39:57.590Z,98207.97
2022-12-03T18:42:25.117Z,98200.94
2022-12-03T18:44:54.697Z,98204.00
2022-12-03T18:47:27.710Z,98200.31
2022-12-03T18:49:54.958Z,98201.69
2022-12-03T18:52:23.331Z,98204.19
2022-12-03T18:54:50.019Z,98207.69
2022-12-03T18:57:16.698Z,98211.53
2022-12-03T18:59:43.353Z,98207.81
2022-12-03T19:02:38.350Z,98204.94
2022-12-03T19:05:07.489Z,98205.75
2022-12-03T19:07:34.896Z,98212.72
2022-12-03T19:10:01.671Z,98210.66
2022-12-03T19:12:28.508Z,98215.22
2022-12-03T19:14:59.364Z,98217.66
2022-12-03T19:17:27.286Z,98219.28
2022-12-03T19:19:54.997Z,98210.00
2022-12-03T19:22:21.975Z,98217.22
2022-12-03T19:24:48.657Z,98218.84
2022-12-03T19:27:15.495Z,98220.47
2022-12-03T19:29:42.814Z,98214.31
2022-12-03T19:32:09.511Z,98220.47
2022-12-03T19:34:36.274Z,98218.84
2022-12-03T19:37:03.248Z,98211.84
2022-12-03T19:39:29.809Z,98209.63
2022-12-03T19:41:56.620Z,98208.81
2022-12-03T19:44:23.783Z,98213.56
2022-12-03T19:46:50.685Z,98211.53
2022-12-03T19:49:20.861Z,98213.03
2022-12-03T19:51:47.916Z,98209.16
2022-12-03T19:54:14.852Z,98220.31
2022-12-03T19:56:41.652Z,98215.41
2022-12-03T19:59:08.788Z,98220.75
2022-12-03T20:01:36.801Z,98222.03
2022-12-03T20:04:04.287Z,98222.50
2022-12-03T20:06:35.958Z,98226.66
2022-12-03T20:09:09.089Z,98226.28
2022-12-03T20:11:36.479Z,98224.84
2022-12-03T20:14:07.971Z,98232.06
2022-12-03T20:16:35.527Z,98239.06
2022-12-03T20:19:05.762Z,98229.59
2022-12-03T20:21:35.014Z,98230.88
2022-12-03T20:24:02.108Z,98241.22
2022-12-03T20:26:29.511Z,98229.50
2022-12-03T20:28:57.106Z,98235.09
2022-12-03T20:31:26.250Z,98224.00
2022-12-03T20:34:00.983Z,98235.53
2022-12-03T20:36:29.127Z,98236.56
2022-12-03T20:38:58.290Z,98238.88
2022-12-03T20:41:25.111Z,98240.50
2022-12-03T20:43:53.090Z,98238.63
2022-12-03T20:46:22.929Z,98242.13
2022-12-03T20:48:49.748Z,98239.25
2022-12-03T20:51:19.661Z,98242.75
2022-12-03T20:53:46.676Z,98239.25
2022-12-03T20:56:21.567Z,98241.31
2022-12-03T20:58:49.110Z,98239.88
2022-12-03T21:01:19.112Z,98240.13
2022-12-03T21:03:47.291Z,98250.22
2022-12-03T21:06:15.633Z,98241.59
2022-12-03T21:08:43.736Z,98243.88
2022-12-03T21:11:24.075Z,98245.38
2022-12-03T21:13:51.698Z,98240.19
2022-12-03T21:16:39.493Z,98244.97
2022-12-03T21:19:08.879Z,98241.47
2022-12-03T21:21:36.516Z,98235.72
2022-12-03T21:24:03.412Z,98240.28
2022-12-03T21:26:30.186Z,98238.63
2022-12-03T21:28:56.913Z,98245.00
2022-12-03T21:31:26.350Z,98240.47
2022-12-03T21:33:54.803Z,98242.97
2022-12-03T21:36:21.961Z,98244.59
2022-12-03T21:38:48.788Z,98247.25
2022-12-03T21:41:16.196Z,98256.13
2022-12-03T21:43:43.778Z,98245.63
2022-12-03T21:47:09.877Z,98248.91
2022-12-03T21:49:02.169Z,98249.50
2022-12-03T21:51:28.812Z,98252.63
2022-12-03T21:53:55.414Z,98232.44
2022-12-03T21:56:22.435Z,98235.34
2022-12-03T21:58:49.119Z,98236.97
2022-12-03T22:01:21.978Z,98235.34
2022-12-03T22:03:49.083Z,98236.97
2022-12-03T22:06:15.998Z,98235.56
2022-12-03T22:08:43.048Z,98239.50
2022-12-03T22:11:13.074Z,98239.50
2022-12-03T22:13:40.651Z,98237.03
2022-12-03T22:16:13.248Z,98237.25
2022-12-03T22:18:40.286Z,98236.03
2022-12-03T22:21:10.096Z,98238.34
2022-12-03T22:23:37.250Z,98242.66
2022-12-03T22:26:08.346Z,98230.06
2022-12-03T22:28:35.098Z,98236.47
2022-12-03T22:31:09.133Z,98236.25
2022-12-03T22:33:36.406Z,98239.53
2022-12-03T22:36:08.345Z,98229.25
2022-12-03T22:38:35.027Z,98235.66
2022-12-03T22:41:06.296Z,98237.69
2022-12-03T22:43:33.823Z,98233.38
2022-12-03T22:46:00.864Z,98234.19
2022-12-03T22:48:27.730Z,98228.00
2022-12-03T22:50:54.353Z,98223.09
2022-12-03T22:53:21.345Z,98228.41
2022-12-03T22:55:56.024Z,98222.59
2022-12-03T22:58:23.443Z,98217.84
2022-12-03T23:00:50.724Z,98223.19
2022-12-03T23:03:18.100Z,98227.75
2022-12-03T23:05:44.918Z,98233.91
2022-12-03T23:08:14.968Z,98242.38
2022-12-03T23:10:43.965Z,98243.03
2022-12-03T23:13:11.288Z,98237.53
2022-12-03T23:15:38.644Z,98237.13
2022-12-03T23:18:05.447Z,98225.81
2022-12-03T23:20:32.190Z,98233.03
2022-12-03T23:22:58.836Z,98230.78
2022-12-03T23:25:25.869Z,98228.94
2022-12-03T23:27:52.540Z,98238.06
2022-12-03T23:30:19.218Z,98231.09
2022-12-03T23:32:46.223Z,98230.72
2022-12-03T23:35:13.547Z,98228.34
2022-12-03T23:37:44.060Z,98227.94
2022-12-03T23:40:12.147Z,98233.72
2022-12-03T23:42:38.747Z,98230.44
2022-12-03T23:45:05.823Z,98226.16
2022-12-03T23:47:32.846Z,98222.66
2022-12-03T23:49:59.419Z,98229.06
2022-12-03T23:52:26.083Z,98222.84
2022-12-03T23:54:53.021Z,98221.03
2022-12-03T23:57:19.665Z,98226.78
2022-12-03T23:59:46.419Z,98218.69
